Time;durP1;ratioP1;P1;durP2;ratioP2;P2;SDS_P1;SDS_P2;PMS_P1;PMS_P2;Temp;Humidity;BMP_temperature;BMP_pressure;BME280_temperature;BME280_humidity;BME280_pressure;Samples;Min_cycle;Max_cycle;Signal;HPM_P1;HPM_P2
2021/04/05 00:00:42;;;;;;;2.47;0.60;;;6.20;70.10;;;5.41;56.61;100867.06;5028773;28;20025;-62
2021/04/05 00:03:08;;;;;;;1.60;0.50;;;6.10;70.30;;;5.35;56.54;100864.91;5027987;28;20339;-52
2021/04/05 00:05:38;;;;;;;4.03;0.70;;;6.00;70.80;;;5.33;56.80;100865.00;5028871;28;20099;-50
2021/04/05 00:08:06;;;;;;;3.58;0.60;;;6.00;70.50;;;5.36;56.41;100857.97;5024079;28;20029;-51
2021/04/05 00:10:54;;;;;;;3.03;0.60;;;6.00;70.10;;;5.39;57.79;100858.59;5028779;28;20060;-53
2021/04/05 00:13:28;;;;;;;1.48;0.40;;;6.00;69.80;;;5.41;56.77;100856.75;5027966;28;20045;-54
2021/04/05 00:15:55;;;;;;;1.48;0.68;;;6.00;70.70;;;5.34;56.52;100858.06;5028360;28;20484;-49
2021/04/05 00:18:24;;;;;;;2.13;0.68;;;6.00;71.10;;;5.29;57.19;100853.19;5008354;28;20053;-51
2021/04/05 00:21:07;;;;;;;1.85;0.73;;;5.90;71.30;;;5.23;57.51;100850.19;5028595;28;20097;-48
2021/04/05 00:23:34;;;;;;;2.47;0.50;;;5.90;71.90;;;5.17;57.67;100848.03;5025948;28;20037;-55
2021/04/05 00:26:01;;;;;;;1.33;0.70;;;5.80;72.80;;;5.18;58.11;100845.34;5028419;28;20029;-56
2021/04/05 00:28:27;;;;;;;1.58;0.45;;;5.80;72.70;;;5.21;58.00;100839.13;5026302;28;20083;-48
2021/04/05 00:30:54;;;;;;;1.50;0.50;;;5.80;72.30;;;5.23;57.77;100840.69;5027655;28;20833;-47
2021/04/05 00:33:21;;;;;;;2.80;0.50;;;5.80;72.40;;;5.16;58.27;100842.03;5028458;28;20135;-51
2021/04/05 00:35:48;;;;;;;2.65;0.60;;;5.80;73.00;;;5.08;58.72;100836.56;5027579;28;20052;-53
2021/04/05 00:38:14;;;;;;;4.38;0.93;;;5.80;74.20;;;4.90;59.18;100835.97;5020618;28;20060;-49
2021/04/05 00:40:43;;;;;;;4.65;0.65;;;5.60;73.80;;;4.87;59.14;100836.19;5026358;28;20033;-56
2021/04/05 00:43:13;;;;;;;7.20;0.80;;;5.50;73.60;;;4.91;58.43;100827.31;5028010;28;20049;-53
2021/04/05 00:45:40;;;;;;;6.38;0.60;;;5.50;73.20;;;4.89;58.88;100823.16;5010110;28;20033;-45
2021/04/05 00:48:08;;;;;;;1.85;0.45;;;5.50;73.40;;;4.84;58.84;100831.22;5010194;28;20056;-54
2021/04/05 00:50:33;;;;;;;2.80;0.70;;;5.50;74.30;;;4.81;58.98;100821.06;5009670;28;20038;-53
2021/04/05 00:53:02;;;;;;;1.80;0.52;;;5.40;74.20;;;4.86;58.60;100811.28;5027839;28;20060;-58
2021/04/05 00:55:29;;;;;;;5.00;0.85;;;5.40;74.00;;;4.81;58.99;100809.94;5026803;28;20040;-51
2021/04/05 00:57:57;;;;;;;2.75;0.90;;;5.40;75.10;;;4.74;58.96;100806.91;5010235;28;20132;-49
2021/04/05 01:00:38;;;;;;;2.08;0.70;;;5.40;75.10;;;4.70;59.58;100802.91;5025434;28;20033;-51
2021/04/05 01:03:06;;;;;;;2.45;0.52;;;5.30;75.20;;;4.69;59.78;100801.25;5027804;28;20551;-56
2021/04/05 01:05:33;;;;;;;5.10;0.80;;;5.30;76.40;;;4.68;59.99;100809.91;5026988;28;20508;-48
2021/04/05 01:07:59;;;;;;;1.50;0.50;;;5.30;77.00;;;4.68;60.21;100801.34;5027710;28;20464;-53
2021/04/05 01:10:25;;;;;;;2.00;0.40;;;5.30;77.30;;;4.63;60.07;100807.63;5027159;28;20026;-55
2021/04/05 01:12:52;;;;;;;2.00;0.55;;;5.30;77.90;;;4.53;60.37;100803.16;5027934;28;20697;-48
2021/04/05 01:15:19;;;;;;;5.30;0.68;;;5.20;78.40;;;4.52;60.57;100796.31;5007106;28;20109;-53
2021/04/05 01:17:48;;;;;;;2.78;0.50;;;5.10;79.20;;;4.48;60.75;100792.28;5026123;28;20393;-58
2021/04/05 01:20:17;;;;;;;3.20;0.60;;;5.10;80.10;;;4.49;60.98;100799.94;5025958;28;20037;-59
2021/04/05 01:22:47;;;;;;;2.03;0.70;;;5.10;81.10;;;4.52;61.06;100797.16;5027885;28;20056;-48
2021/04/05 01:25:17;;;;;;;4.10;0.70;;;5.10;82.20;;;4.53;60.46;100797.97;5025695;28;20116;-61
2021/04/05 01:27:44;;;;;;;3.33;0.70;;;5.10;81.80;;;4.51;60.76;100792.91;5024631;28;20038;-49
2021/04/05 01:30:33;;;;;;;1.48;0.50;;;5.10;83.10;;;4.49;61.63;100783.63;5024810;28;20026;-45
2021/04/05 01:33:00;;;;;;;2.70;0.73;;;5.10;83.70;;;4.50;60.73;100785.28;5011327;28;20638;-46
2021/04/05 01:35:26;;;;;;;3.08;0.52;;;5.10;84.10;;;4.52;60.94;100783.41;5026728;28;20056;-54
2021/04/05 01:37:52;;;;;;;1.48;0.50;;;5.10;86.40;;;4.41;60.91;100781.53;5013226;28;20054;-54
2021/04/05 01:40:18;;;;;;;1.92;0.60;;;5.00;87.00;;;4.37;61.08;100776.66;4996473;28;20045;-54
2021/04/05 01:42:45;;;;;;;2.10;0.98;;;5.00;87.90;;;4.44;60.96;100777.91;4997822;28;20490;-49
2021/04/05 01:45:15;;;;;;;3.83;0.50;;;5.00;87.80;;;4.55;60.19;100771.16;4994571;28;20030;-51
2021/04/05 01:47:41;;;;;;;1.55;0.47;;;5.10;87.80;;;4.59;59.98;100770.03;4999715;28;20037;-53
2021/04/05 01:50:08;;;;;;;1.23;0.50;;;5.10;87.90;;;4.66;60.16;100770.47;4990669;28;20035;-50
2021/04/05 01:52:39;;;;;;;1.88;0.60;;;5.20;88.30;;;4.67;60.08;100772.13;4997955;28;20084;-54
2021/04/05 01:55:07;;;;;;;2.50;0.47;;;5.20;88.10;;;4.64;59.97;100767.97;4993803;28;20038;-54
2021/04/05 01:57:33;;;;;;;1.23;0.40;;;5.20;88.40;;;4.62;59.76;100761.25;4987438;28;20038;-50
2021/04/05 01:59:59;;;;;;;2.03;0.90;;;5.20;89.20;;;4.56;61.09;100762.47;4991965;28;20034;-59
2021/04/05 02:02:25;;;;;;;2.28;0.50;;;5.20;90.30;;;4.65;59.78;100763.66;4988404;28;20045;-47
2021/04/05 02:04:51;;;;;;;2.45;0.40;;;5.30;90.00;;;4.63;59.71;100760.34;5003371;28;20096;-49
2021/04/05 02:07:17;;;;;;;3.15;1.23;;;5.20;90.00;;;4.27;62.35;100751.44;5010821;28;20514;-49
2021/04/05 02:09:43;;;;;;;2.42;0.50;;;5.00;91.90;;;4.27;61.72;100748.03;4997446;28;20338;-55
2021/04/05 02:12:10;;;;;;;1.52;0.43;;;4.90;92.70;;;4.24;61.48;100743.91;4986683;28;20034;-53
2021/04/05 02:14:36;;;;;;;2.58;0.60;;;4.80;92.70;;;4.23;61.69;100744.00;4994904;28;20050;-50
2021/04/05 02:17:02;;;;;;;1.40;0.47;;;4.80;93.20;;;4.31;61.63;100742.56;4992977;28;20030;-45
2021/04/05 02:19:28;;;;;;;2.45;0.40;;;4.90;94.00;;;4.27;62.30;100743.69;4989081;28;20077;-55
2021/04/05 02:21:54;;;;;;;1.23;0.38;;;4.90;94.50;;;4.21;62.92;100732.97;4992594;28;20038;-53
2021/04/05 02:24:21;;;;;;;1.92;0.50;;;4.80;95.80;;;4.17;63.24;100739.25;4994527;28;20160;-52
2021/04/05 02:26:47;;;;;;;1.42;0.40;;;4.80;96.60;;;4.09;63.53;100738.88;4998106;28;20042;-50
2021/04/05 02:29:19;;;;;;;3.80;0.60;;;4.70;97.30;;;4.02;64.11;100738.44;4991727;28;20544;-52
2021/04/05 02:31:45;;;;;;;1.60;0.50;;;4.60;97.70;;;3.98;64.08;100744.72;5000765;28;20077;-46
2021/04/05 02:34:13;;;;;;;3.03;0.32;;;4.60;98.40;;;3.93;64.44;100736.44;4992427;28;20037;-58
2021/04/05 02:36:41;;;;;;;4.30;0.50;;;4.60;99.10;;;3.97;64.34;100732.75;5006810;28;20072;-52
2021/04/05 02:39:10;;;;;;;0.82;0.30;;;4.60;99.50;;;3.89;64.48;100729.81;5029955;28;20537;-47
2021/04/05 02:41:43;;;;;;;2.65;0.40;;;4.50;99.50;;;3.96;64.04;100728.50;5029078;28;20092;-46
2021/04/05 02:44:09;;;;;;;1.73;0.55;;;4.50;99.70;;;3.94;63.84;100727.78;5030587;28;20071;-48
2021/04/05 02:46:38;;;;;;;2.20;0.73;;;4.50;99.60;;;4.02;63.25;100720.41;5029386;28;20037;-44
2021/04/05 02:49:13;;;;;;;3.28;0.80;;;4.50;99.30;;;3.98;64.24;100721.50;5030161;28;20029;-50
2021/04/05 02:51:46;;;;;;;3.38;0.70;;;4.60;99.90;;;3.93;64.23;100724.38;5011616;28;20468;-53
2021/04/05 02:54:12;;;;;;;4.35;0.70;;;4.60;99.90;;;4.02;63.69;100719.56;5030365;28;20423;-55
2021/04/05 02:56:40;;;;;;;1.83;0.40;;;4.60;99.90;;;3.93;64.36;100720.97;5029559;28;20156;-50
2021/04/05 02:59:07;;;;;;;2.60;0.63;;;4.50;99.90;;;3.94;64.53;100715.72;5012219;28;20048;-45
2021/04/05 03:01:34;;;;;;;3.03;0.47;;;4.50;99.90;;;3.96;64.56;100710.47;5009072;28;20524;-46
2021/04/05 03:04:00;;;;;;;4.57;0.63;;;4.60;99.90;;;3.93;64.88;100708.06;5023430;28;20025;-45
2021/04/05 03:06:29;;;;;;;2.65;0.70;;;4.50;99.90;;;3.93;65.23;100708.06;5029017;28;20038;-48
2021/04/05 03:09:01;;;;;;;4.95;0.73;;;4.50;99.90;;;3.90;65.09;100703.94;5022521;28;20111;-50
2021/04/05 03:11:30;;;;;;;3.03;0.40;;;4.50;99.90;;;3.88;65.29;100698.06;5010950;28;20039;-47
2021/04/05 03:13:56;;;;;;;2.90;0.73;;;4.50;99.90;;;3.93;65.18;100705.50;5011981;28;20403;-46
2021/04/05 03:16:27;;;;;;;2.78;0.50;;;4.50;99.90;;;4.06;64.44;100698.66;5029368;28;20206;-50
2021/04/05 03:18:58;;;;;;;2.10;0.45;;;4.60;99.90;;;4.05;64.37;100689.25;5011732;28;20037;-48
2021/04/05 03:21:25;;;;;;;1.60;0.45;;;4.60;99.90;;;4.06;64.11;100692.66;4993241;28;20041;-50
2021/04/05 03:23:52;;;;;;;3.92;0.80;;;4.70;99.90;;;4.07;63.75;100690.00;5009797;28;20030;-59
2021/04/05 03:26:18;;;;;;;2.25;0.50;;;4.70;99.90;;;4.05;64.15;100689.25;5010983;28;20037;-59
2021/04/05 03:28:44;;;;;;;2.10;0.70;;;4.60;99.90;;;3.97;64.65;100687.16;5028299;28;20428;-54
2021/04/05 03:31:20;;;;;;;1.40;0.32;;;4.60;99.90;;;3.91;65.19;100679.00;5029617;28;20064;-56
2021/04/05 03:34:10;;;;;;;2.20;0.45;;;4.50;99.90;;;3.89;65.46;100675.69;5026939;28;20074;-51
2021/04/05 03:36:54;;;;;;;2.67;0.70;;;4.50;99.90;;;3.96;65.50;100682.09;5028817;28;20053;-47
2021/04/05 03:39:21;;;;;;;2.05;0.70;;;4.50;99.90;;;3.99;64.55;100681.91;5025920;28;20365;-44
2021/04/05 03:42:40;;;;;;;1.35;0.55;;;4.50;99.90;;;4.04;66.75;100682.44;5010568;28;20041;-54
2021/04/05 03:45:30;;;;;;;1.95;0.70;;;4.60;99.90;;;4.09;65.46;100677.84;5028502;28;20535;-49
2021/04/05 03:48:34;;;;;;;5.82;0.90;;;4.60;99.90;;;4.07;65.97;100678.84;5010089;28;20436;-58
2021/04/05 03:51:26;;;;;;;3.05;0.70;;;4.60;99.90;;;3.99;66.58;100669.03;5010547;28;20045;-46
2021/04/05 03:54:11;;;;;;;1.98;0.85;;;4.60;99.90;;;3.89;66.88;100671.34;5011264;28;20053;-51
2021/04/05 03:56:49;;;;;;;2.38;0.95;;;4.50;99.90;;;3.86;66.35;100665.56;5012173;28;20087;-53
2021/04/05 03:59:39;;;;;;;2.55;0.70;;;4.40;99.90;;;3.91;66.28;100663.53;5004807;28;20136;-55
2021/04/05 04:04:38;;;;;;;3.70;0.70;;;4.40;99.90;;;3.84;65.40;100662.25;4811240;23;20136;-45
2021/04/05 04:09:42;;;;;;;2.85;1.15;;;4.40;99.90;;;3.77;66.31;100648.94;5004895;28;20044;-56
2021/04/05 04:12:14;;;;;;;4.63;0.80;;;4.40;99.90;;;3.72;66.33;100653.56;5020261;28;20034;-58
2021/04/05 04:14:42;;;;;;;5.95;1.63;;;4.30;99.90;;;3.66;66.23;100646.22;5028357;28;20034;-56
2021/04/05 04:17:09;;;;;;;2.05;0.50;;;4.30;99.90;;;3.67;66.25;100653.03;5019848;28;20036;-53
2021/04/05 04:19:38;;;;;;;2.33;0.68;;;4.20;99.90;;;3.72;66.29;100647.59;5009163;28;20044;-48
2021/04/05 04:22:06;;;;;;;1.55;0.50;;;4.30;99.90;;;3.76;66.77;100643.91;5009425;28;20041;-47
2021/04/05 04:24:37;;;;;;;2.97;0.70;;;4.30;99.90;;;3.71;66.70;100645.94;5002880;28;20045;-44
2021/04/05 04:27:04;;;;;;;2.45;0.73;;;4.30;99.90;;;3.73;66.49;100649.25;5000906;28;20696;-58
2021/04/05 04:29:30;;;;;;;3.55;0.60;;;4.30;99.90;;;3.76;66.68;100641.31;5022240;28;20045;-55
2021/04/05 04:31:56;;;;;;;2.25;0.50;;;4.30;99.90;;;3.76;66.97;100644.72;5026925;28;20389;-58
2021/04/05 04:34:23;;;;;;;1.60;0.40;;;4.30;99.90;;;3.80;66.24;100630.69;5027956;28;20034;-54
2021/04/05 04:36:52;;;;;;;2.60;0.47;;;4.40;99.90;;;3.81;66.23;100628.94;5026590;28;20033;-53
2021/04/05 04:39:19;;;;;;;2.28;0.80;;;4.40;99.90;;;3.84;66.41;100639.06;5012543;28;20044;-55
2021/04/05 04:41:47;;;;;;;1.67;0.50;;;4.40;99.90;;;3.82;66.53;100639.16;5020229;28;20045;-51
2021/04/05 04:44:15;;;;;;;2.13;0.70;;;4.40;99.90;;;3.89;66.32;100639.59;5026823;28;20708;-49
2021/04/05 04:46:41;;;;;;;1.60;0.93;;;4.50;99.90;;;3.88;66.25;100638.75;5020650;28;20074;-55
2021/04/05 04:49:10;;;;;;;1.30;0.68;;;4.50;99.90;;;3.94;66.48;100642.72;5017629;28;20033;-55
2021/04/05 04:51:38;;;;;;;2.72;0.57;;;4.50;99.90;;;4.05;65.89;100640.28;5016859;28;20034;-55
2021/04/05 04:54:08;;;;;;;2.63;0.70;;;4.60;99.90;;;4.16;65.72;100645.56;5017613;28;20061;-51
2021/04/05 04:56:34;;;;;;;2.25;0.60;;;4.70;99.90;;;4.09;65.92;100636.56;5004917;28;20038;-50
2021/04/05 04:59:03;;;;;;;4.57;0.70;;;4.70;99.90;;;4.13;65.87;100632.88;5016611;28;20069;-52
2021/04/05 05:01:31;;;;;;;1.88;0.60;;;4.80;99.90;;;4.21;65.48;100627.22;5022534;28;20038;-53
2021/04/05 05:04:05;;;;;;;2.50;0.68;;;4.80;99.90;;;4.25;65.15;100632.06;5023557;28;20060;-45
2021/04/05 05:06:33;;;;;;;4.72;1.17;;;4.80;99.90;;;4.27;64.98;100637.94;5013019;28;20668;-56
2021/04/05 05:09:00;;;;;;;2.92;1.50;;;4.90;99.90;;;4.32;65.03;100632.47;5009258;28;20040;-58
2021/04/05 05:11:27;;;;;;;2.53;0.95;;;4.90;99.90;;;4.46;64.56;100631.59;5001859;28;20438;-55
2021/04/05 05:13:57;;;;;;;3.25;1.00;;;5.00;99.90;;;4.65;63.91;100630.28;5002949;28;20048;-53
2021/04/05 05:16:30;;;;;;;3.67;1.75;;;5.20;99.90;;;4.71;64.42;100639.38;5018680;28;20037;-60
2021/04/05 05:18:58;;;;;;;4.15;1.65;;;5.30;99.90;;;4.88;63.78;100633.03;5002215;28;20095;-56
2021/04/05 05:21:39;;;;;;;4.35;1.48;;;5.50;99.90;;;4.98;63.55;100636.66;5018832;28;20121;-49
2021/04/05 05:24:08;;;;;;;4.20;1.23;;;5.60;99.90;;;5.10;62.52;100637.56;5002051;28;20046;-56
2021/04/05 05:26:36;;;;;;;4.80;1.85;;;5.70;99.90;;;5.22;62.18;100640.13;5012591;28;20045;-47
2021/04/05 05:29:13;;;;;;;3.67;1.40;;;5.80;99.90;;;5.66;61.44;100638.78;5019857;28;20029;-49
2021/04/05 05:31:43;;;;;;;7.35;2.05;;;6.20;99.90;;;5.80;61.07;100635.19;4994959;28;20056;-52
2021/04/05 05:34:21;;;;;;;4.07;1.80;;;6.60;97.60;;;5.92;60.95;100639.53;5001406;28;20029;-50
2021/04/05 05:36:48;;;;;;;5.50;1.65;;;6.70;97.30;;;5.95;60.50;100626.38;5013392;28;20476;-50
2021/04/05 05:39:18;;;;;;;3.85;0.82;;;6.70;96.50;;;6.04;59.75;100628.31;5000136;28;20574;-58
2021/04/05 05:42:28;;;;;;;2.58;0.80;;;6.70;95.80;;;6.09;59.38;100621.03;5015950;28;20533;-50
2021/04/05 05:45:06;;;;;;;5.22;1.00;;;6.70;95.30;;;6.20;59.16;100621.06;5013174;28;20149;-54
2021/04/05 05:48:06;;;;;;;4.30;0.80;;;6.90;95.20;;;6.33;59.07;100621.81;5017429;28;20057;-52
2021/04/05 05:50:42;;;;;;;3.38;0.90;;;7.00;94.80;;;6.29;59.28;100625.56;4989642;28;20041;-47
2021/04/05 05:53:33;;;;;;;2.42;1.20;;;7.00;94.40;;;6.39;58.97;100630.06;5026532;28;20048;-62
2021/04/05 05:56:50;;;;;;;3.78;1.30;;;7.00;94.80;;;6.52;59.31;100612.69;5012830;28;20373;-54
2021/04/05 05:59:39;;;;;;;4.60;0.90;;;7.10;95.10;;;6.66;59.13;100622.81;4983820;28;20064;-46
2021/04/05 06:02:35;;;;;;;4.13;1.13;;;7.20;95.00;;;6.82;58.46;100619.88;5008155;28;20161;-58
2021/04/05 06:05:09;;;;;;;2.58;1.00;;;7.40;94.70;;;6.88;58.37;100615.06;5022190;28;20500;-54
2021/04/05 06:08:15;;;;;;;2.25;0.60;;;7.50;94.00;;;7.06;57.62;100609.44;5022975;28;20140;-45
2021/04/05 06:11:13;;;;;;;5.13;0.60;;;7.70;93.60;;;7.23;57.13;100607.16;5013163;28;20061;-52
2021/04/05 06:14:06;;;;;;;1.77;0.80;;;7.80;92.50;;;7.44;57.24;100601.25;5027060;28;20136;-57
2021/04/05 06:17:17;;;;;;;2.58;0.90;;;8.00;92.40;;;7.46;56.56;100607.97;4993819;28;20037;-60
2021/04/05 06:19:53;;;;;;;2.38;0.85;;;8.20;91.60;;;7.44;56.74;100606.44;5018239;28;20044;-46
2021/04/05 06:22:31;;;;;;;5.32;0.80;;;8.10;91.30;;;7.37;56.38;100606.09;5028920;28;20037;-48
2021/04/05 06:25:26;;;;;;;5.53;0.68;;;8.10;90.90;;;7.39;56.33;100606.78;5021917;28;20075;-54
2021/04/05 06:28:13;;;;;;;3.03;0.90;;;8.10;91.00;;;7.41;56.47;100606.66;5015017;28;20199;-49
2021/04/05 06:31:08;;;;;;;3.15;0.95;;;8.10;91.00;;;7.37;56.20;100603.50;5018144;28;20091;-54
2021/04/05 06:33:48;;;;;;;2.97;1.20;;;8.10;90.50;;;7.46;56.10;100605.38;5001394;28;20041;-55
2021/04/05 06:36:49;;;;;;;3.55;1.33;;;8.10;90.30;;;7.56;56.14;100593.28;5012738;28;20079;-52
2021/04/05 06:39:21;;;;;;;2.22;1.38;;;8.20;90.30;;;7.59;56.08;100600.81;5022181;28;20127;-46
2021/04/05 06:42:35;;;;;;;3.47;2.15;;;8.20;90.20;;;7.56;56.33;100610.66;5023738;28;20504;-49
2021/04/05 06:45:34;;;;;;;7.38;2.70;;;8.20;90.60;;;7.44;56.38;100594.28;5021176;28;20052;-48
2021/04/05 06:48:16;;;;;;;6.07;2.10;;;8.10;90.30;;;7.49;56.77;100589.56;5022625;28;20545;-58
2021/04/05 06:51:23;;;;;;;6.47;2.13;;;8.10;90.50;;;7.66;55.72;100588.19;5021091;28;20529;-49
2021/04/05 06:54:24;;;;;;;3.78;2.35;;;8.20;90.20;;;7.80;55.34;100585.34;5022362;28;20139;-57
2021/04/05 06:57:07;;;;;;;5.78;1.70;;;8.30;89.90;;;7.88;54.54;100580.34;5010922;28;20049;-54
2021/04/05 06:59:57;;;;;;;4.00;2.17;;;8.50;88.30;;;8.01;54.37;100566.38;5020870;28;20076;-60
2021/04/05 07:03:24;;;;;;;3.33;1.60;;;8.50;88.30;;;8.17;54.62;100561.56;5028721;28;20539;-50
2021/04/05 07:06:46;;;;;;;3.25;0.82;;;8.60;87.90;;;8.27;54.01;100560.69;5020471;28;20446;-63
2021/04/05 07:10:09;;;;;;;2.17;0.70;;;8.80;86.40;;;8.43;53.17;100562.03;5016076;28;20159;-49
2021/04/05 07:13:25;;;;;;;5.85;0.90;;;8.90;85.00;;;8.29;53.18;100558.78;5016254;28;20046;-53
2021/04/05 07:16:09;;;;;;;3.15;0.65;;;8.90;84.50;;;8.53;52.87;100562.88;5019877;28;20051;-47
2021/04/05 07:19:08;;;;;;;2.70;0.77;;;9.10;84.00;;;8.78;52.57;100553.84;5011938;28;20488;-55
2021/04/05 07:21:55;;;;;;;2.85;0.60;;;9.40;82.80;;;8.94;51.78;100549.00;5015166;28;20037;-57
2021/04/05 07:24:58;;;;;;;1.98;0.88;;;9.50;81.90;;;9.08;51.75;100540.00;5009495;28;20038;-59
2021/04/05 07:28:08;;;;;;;4.20;1.05;;;9.60;81.10;;;9.22;52.26;100537.03;5006467;28;20110;-51
2021/04/05 07:30:58;;;;;;;4.53;1.05;;;9.80;81.40;;;9.21;52.40;100536.19;5021596;28;20185;-61
2021/04/05 07:33:38;;;;;;;3.30;0.90;;;9.80;81.60;;;9.36;52.29;100539.25;5006623;28;20030;-49
2021/04/05 07:36:34;;;;;;;3.45;0.95;;;10.00;80.90;;;9.50;52.26;100536.22;5017742;28;20035;-53
2021/04/05 07:39:31;;;;;;;6.75;0.93;;;10.10;80.80;;;9.61;51.81;100535.28;5027105;28;20041;-50
2021/04/05 07:42:36;;;;;;;4.93;1.20;;;10.20;80.50;;;9.56;52.71;100533.09;5019682;28;20056;-49
2021/04/05 07:45:34;;;;;;;3.75;1.17;;;10.20;80.70;;;9.70;52.62;100536.25;5022069;28;20049;-59
2021/04/05 07:48:19;;;;;;;4.32;1.33;;;10.20;80.90;;;9.91;51.89;100532.53;5028289;28;20034;-49
2021/04/05 07:50:58;;;;;;;3.58;0.88;;;10.40;80.60;;;9.97;51.70;100534.56;5004346;28;20030;-57
2021/04/05 07:53:46;;;;;;;2.40;0.82;;;10.60;79.70;;;10.15;51.27;100526.88;5024909;28;20041;-49
2021/04/05 07:56:50;;;;;;;4.20;0.95;;;10.80;79.20;;;10.39;50.81;100533.44;5019006;28;20037;-56
2021/04/05 07:59:44;;;;;;;4.05;0.80;;;10.90;77.90;;;10.30;50.27;100537.72;5024702;28;20064;-56
2021/04/05 08:02:42;;;;;;;4.05;1.17;;;11.00;76.30;;;10.73;49.62;100541.53;5006885;28;20042;-56
2021/04/05 08:05:35;;;;;;;5.25;1.45;;;11.20;76.30;;;11.04;49.12;100535.06;5009930;28;20501;-57
2021/04/05 08:08:25;;;;;;;2.35;0.80;;;11.50;75.50;;;11.12;47.81;100534.34;5028111;28;20068;-51
2021/04/05 08:11:23;;;;;;;5.07;0.98;;;11.80;73.00;;;11.34;47.15;100533.13;5000099;28;20084;-52
2021/04/05 08:14:23;;;;;;;4.00;1.45;;;11.90;71.90;;;11.47;47.29;100536.97;5018083;28;20350;-54
2021/04/05 08:17:01;;;;;;;2.03;0.77;;;12.00;71.60;;;11.66;47.21;100532.59;4988920;28;20045;-56
2021/04/05 08:19:46;;;;;;;13.60;2.47;;;12.10;71.00;;;12.10;46.77;100542.13;5004517;28;20167;-52
2021/04/05 08:22:52;;;;;;;3.05;0.85;;;12.50;70.90;;;12.33;45.17;100538.97;5007260;28;20033;-52
2021/04/05 08:25:59;;;;;;;2.58;0.80;;;12.90;68.80;;;12.67;44.16;100534.63;5001927;28;20381;-55
2021/04/05 08:29:02;;;;;;;2.40;0.82;;;13.20;66.80;;;12.64;42.32;100534.94;5020787;28;20057;-49
2021/04/05 08:31:34;;;;;;;3.03;1.20;;;13.30;63.50;;;13.03;43.44;100539.66;5005094;28;20049;-56
2021/04/05 08:34:23;;;;;;;2.60;0.70;;;13.50;64.20;;;13.21;43.14;100524.69;5022055;28;20056;-50
2021/04/05 08:37:20;;;;;;;5.28;1.02;;;13.80;62.80;;;13.23;41.19;100522.75;5023241;28;20076;-56
2021/04/05 08:40:01;;;;;;;2.92;0.80;;;14.00;60.50;;;14.23;39.42;100525.03;5022054;28;20037;-44
2021/04/05 08:42:46;;;;;;;2.28;0.50;;;14.60;59.50;;;15.20;38.25;100520.41;5000782;28;20098;-57
2021/04/05 08:45:22;;;;;;;4.70;0.60;;;15.40;58.30;;;14.73;36.99;100515.25;5020420;28;20065;-56
2021/04/05 08:48:04;;;;;;;1.23;0.50;;;15.50;54.50;;;14.71;36.76;100509.34;5018069;28;20335;-52
2021/04/05 08:50:38;;;;;;;1.83;0.30;;;15.50;53.20;;;15.05;36.31;100515.13;5006191;28;20130;-51
2021/04/05 08:53:04;;;;;;;3.40;0.82;;;15.70;53.50;;;14.04;36.69;100507.06;5026206;28;20116;-49
2021/04/05 08:55:32;;;;;;;1.42;0.40;;;15.20;50.90;;;13.96;37.94;100509.69;5021487;28;20589;-57
2021/04/05 08:58:18;;;;;;;2.28;0.60;;;14.70;54.10;;;14.32;35.74;100509.28;5024954;28;20075;-62
2021/04/05 09:00:49;;;;;;;0.82;0.30;;;14.80;53.30;;;13.35;38.01;100502.31;5005679;28;20091;-58
2021/04/05 09:03:26;;;;;;;0.85;0.35;;;14.10;53.00;;;13.55;36.72;100501.03;4998897;28;20048;-59
2021/04/05 09:05:52;;;;;;;1.17;0.35;;;14.10;53.80;;;13.58;37.96;100501.53;5016606;28;20041;-58
2021/04/05 09:08:26;;;;;;;2.88;0.32;;;14.10;54.20;;;14.35;37.24;100495.84;5027280;28;20037;-50
2021/04/05 09:11:04;;;;;;;1.05;0.30;;;14.60;54.50;;;14.17;37.14;100490.84;5008065;28;20026;-57
2021/04/05 09:14:01;;;;;;;3.17;0.73;;;14.60;53.80;;;13.51;38.69;100497.91;5013491;28;20029;-50
2021/04/05 09:16:55;;;;;;;1.83;0.40;;;14.20;54.60;;;13.75;37.21;100485.78;5023791;28;20059;-50
2021/04/05 09:20:03;;;;;;;1.80;0.50;;;14.50;54.10;;;14.29;36.18;100479.00;5015568;28;20045;-57
2021/04/05 09:23:03;;;;;;;3.40;0.57;;;14.80;53.30;;;15.11;36.53;100475.06;5020563;28;20353;-51
2021/04/05 09:26:12;;;;;;;1.80;0.40;;;15.50;53.50;;;15.49;35.40;100475.13;5014759;28;20056;-54
2021/04/05 09:29:15;;;;;;;4.10;0.63;;;16.10;52.10;;;15.42;34.79;100471.56;4920183;29;20043;-53
2021/04/05 09:31:46;;;;;;;2.50;0.40;;;16.30;51.10;;;15.57;35.63;100464.59;4919694;29;20055;-58
2021/04/05 09:34:40;;;;;;;1.02;0.47;;;16.30;51.30;;;15.51;35.01;100460.00;4926290;29;20166;-51
2021/04/05 09:37:42;;;;;;;1.05;0.50;;;16.20;51.20;;;15.41;34.32;100451.56;4909434;29;20039;-51
2021/04/05 09:40:24;;;;;;;4.05;0.60;;;16.20;50.60;;;14.94;35.87;100447.28;4924658;29;20075;-52
2021/04/05 09:43:03;;;;;;;2.70;0.75;;;15.80;50.80;;;14.53;36.29;100438.81;4925766;29;20050;-52
2021/04/05 09:46:50;;;;;;;2.42;0.85;;;15.50;51.20;;;14.78;36.27;100424.56;4909894;29;20047;-56
2021/04/05 09:49:28;;;;;;;2.53;0.80;;;15.50;52.00;;;14.72;36.61;100425.25;4844991;29;20472;-53
2021/04/05 09:52:40;;;;;;;1.85;0.65;;;15.50;52.00;;;14.70;36.08;100419.38;4868796;29;20053;-53
2021/04/05 09:55:16;;;;;;;3.47;0.63;;;15.40;51.20;;;15.39;35.82;100417.59;4867168;29;20049;-52
2021/04/05 09:57:53;;;;;;;1.52;0.40;;;15.70;52.00;;;15.40;34.50;100408.72;4867747;29;20505;-51
2021/04/05 10:00:20;;;;;;;2.67;0.60;;;15.90;50.90;;;15.21;35.89;100407.41;4854138;29;20064;-56
2021/04/05 10:02:58;;;;;;;2.83;0.93;;;15.80;51.00;;;15.94;33.69;100408.56;4868683;29;20037;-55
2021/04/05 10:05:26;;;;;;;1.40;0.65;;;16.20;50.90;;;16.29;33.78;100401.75;4942198;29;20402;-55
2021/04/05 10:07:56;;;;;;;1.15;0.40;;;16.70;49.70;;;16.41;33.03;100389.78;4943527;29;20031;-57
2021/04/05 10:10:25;;;;;;;2.67;0.65;;;16.80;48.40;;;16.68;33.00;100385.66;4928628;29;20062;-55
2021/04/05 10:12:55;;;;;;;0.90;0.40;;;17.10;48.80;;;16.44;32.90;100389.41;4945147;29;20039;-52
2021/04/05 10:15:29;;;;;;;2.95;0.50;;;17.20;47.70;;;16.91;32.46;100386.31;4926164;29;20047;-46
2021/04/05 10:18:02;;;;;;;2.80;0.55;;;17.20;48.30;;;16.60;32.08;100381.28;4943854;29;20495;-47
2021/04/05 10:20:32;;;;;;;3.80;0.60;;;17.30;47.10;;;16.55;32.60;100378.38;5002263;28;20488;-51
2021/04/05 10:23:09;;;;;;;2.17;0.70;;;17.10;47.20;;;16.68;31.86;100376.94;5002007;28;20085;-55
2021/04/05 10:25:37;;;;;;;4.18;0.95;;;17.30;47.20;;;16.61;32.93;100376.84;5019677;28;20049;-50
2021/04/05 10:28:06;;;;;;;2.33;0.80;;;17.20;47.60;;;16.33;33.01;100373.28;5017685;28;20022;-52
2021/04/05 10:30:36;;;;;;;4.30;0.73;;;17.20;47.50;;;17.17;31.73;100358.59;5005785;28;20102;-54
2021/04/05 10:33:08;;;;;;;2.95;0.80;;;17.30;47.60;;;16.38;32.14;100358.59;4999802;28;20469;-54
2021/04/05 10:35:42;;;;;;;0.90;0.60;;;17.30;46.30;;;15.84;32.73;100363.34;5006642;28;20398;-56
2021/04/05 10:38:08;;;;;;;2.63;0.80;;;16.80;47.30;;;15.79;33.77;100358.66;5003607;28;20127;-49
2021/04/05 10:40:35;;;;;;;1.65;0.82;;;16.60;47.80;;;15.30;34.21;100354.84;5000261;28;20192;-55
2021/04/05 10:43:38;;;;;;;2.60;0.77;;;16.20;47.60;;;15.10;34.07;100355.34;5005530;28;20037;-53
2021/04/05 10:46:34;;;;;;;4.40;1.73;;;15.80;48.20;;;15.27;34.01;100353.38;5021205;28;20033;-51
2021/04/05 10:49:14;;;;;;;2.47;0.77;;;15.90;48.80;;;15.39;34.64;100345.91;5006145;28;20072;-45
2021/04/05 10:51:57;;;;;;;2.95;2.10;;;16.00;49.50;;;15.65;34.91;100333.19;5020904;28;20378;-59
2021/04/05 10:54:47;;;;;;;3.25;1.20;;;16.10;49.70;;;15.63;35.02;100336.97;5002115;28;20057;-50
2021/04/05 10:57:32;;;;;;;3.33;1.30;;;16.30;49.50;;;15.32;35.12;100334.47;5019748;28;20048;-52
2021/04/05 11:00:09;;;;;;;3.42;1.23;;;16.10;49.60;;;15.36;34.92;100336.56;5020651;28;20048;-56
2021/04/05 11:03:14;;;;;;;7.85;3.90;;;16.00;49.60;;;15.08;34.62;100340.78;5003357;28;20046;-57
2021/04/05 11:05:42;;;;;;;2.05;0.98;;;15.90;48.50;;;14.57;36.13;100337.88;5016750;28;20057;-49
2021/04/05 11:08:15;;;;;;;1.77;1.10;;;15.40;49.60;;;14.75;36.00;100330.50;5016419;28;20037;-50
2021/04/05 11:10:42;;;;;;;2.95;0.90;;;15.40;50.00;;;14.69;36.11;100333.00;5027939;28;20033;-47
2021/04/05 11:13:13;;;;;;;6.47;2.80;;;15.40;50.30;;;14.31;36.81;100332.06;5004305;28;20144;-55
2021/04/05 11:15:44;;;;;;;2.28;0.80;;;15.20;50.60;;;14.29;36.79;100324.38;5012026;28;20299;-57